Time;durP1;ratioP1;P1;durP2;ratioP2;P2;SDS_P1;SDS_P2;PMS_P1;PMS_P2;Temp;Humidity;BMP_temperature;BMP_pressure;BME280_temperature;BME280_humidity;BME280_pressure;Samples;Min_cycle;Max_cycle;Signal;HPM_P1;HPM_P2
2022/01/08 00:01:02;;;;;;;108.57;48.17;;;;;;;;;;5033826;28;20045;-80
2022/01/08 00:03:51;;;;;;;93.28;42.97;;;;;;;;;;5033555;28;20401;-80
2022/01/08 00:06:36;;;;;;;84.90;42.90;;;;;;;;;;5035548;28;20045;-80
2022/01/08 00:09:22;;;;;;;91.25;45.10;;;;;;;;;;5042028;28;20046;-79
2022/01/08 00:12:08;;;;;;;82.53;42.85;;;;;;;;;;5041849;28;20045;-82
2022/01/08 00:14:53;;;;;;;82.45;41.13;;;;;;;;;;5042167;28;20045;-79
2022/01/08 00:17:38;;;;;;;82.82;42.88;;;;;;;;;;5040704;28;20053;-80
2022/01/08 00:20:24;;;;;;;76.90;37.40;;;;;;;;;;5033109;28;20397;-78
2022/01/08 00:23:10;;;;;;;74.07;38.33;;;;;;;;;;5039984;28;20049;-79
2022/01/08 00:25:58;;;;;;;75.10;37.00;;;;;;;;;;5039424;28;20477;-81
2022/01/08 00:28:44;;;;;;;67.53;37.50;;;;;;;;;;5033031;28;20046;-80
2022/01/08 00:31:29;;;;;;;84.78;41.03;;;;;;;;;;5033491;28;20061;-79
2022/01/08 00:34:15;;;;;;;83.70;41.65;;;;;;;;;;5041558;28;20045;-79
2022/01/08 00:37:00;;;;;;;97.10;45.17;;;;;;;;;;5041780;28;20053;-79
2022/01/08 00:39:47;;;;;;;99.28;47.55;;;;;;;;;;5034794;28;20473;-79
2022/01/08 00:42:34;;;;;;;89.97;42.65;;;;;;;;;;5042009;28;20045;-78
2022/01/08 00:45:20;;;;;;;94.45;46.33;;;;;;;;;;5035257;28;20389;-77
2022/01/08 00:48:05;;;;;;;86.20;41.10;;;;;;;;;;5036545;28;20485;-83
2022/01/08 00:50:52;;;;;;;130.00;53.90;;;;;;;;;;5043936;28;20053;-78
2022/01/08 00:53:37;;;;;;;103.50;46.75;;;;;;;;;;5043306;28;20041;-78
2022/01/08 00:56:23;;;;;;;88.10;43.85;;;;;;;;;;5042009;28;20481;-79
2022/01/08 00:59:08;;;;;;;80.72;43.67;;;;;;;;;;5035193;28;20041;-80
2022/01/08 01:01:54;;;;;;;68.75;34.53;;;;;;;;;;5025672;28;20038;-80
2022/01/08 01:04:40;;;;;;;86.57;43.88;;;;;;;;;;5040942;28;20037;-77
2022/01/08 01:07:25;;;;;;;71.03;38.05;;;;;;;;;;5040818;28;20049;-77
2022/01/08 01:10:10;;;;;;;67.70;33.05;;;;;;;;;;5033706;28;20380;-79
2022/01/08 01:12:56;;;;;;;52.58;27.73;;;;;;;;;;5041107;28;20045;-79
2022/01/08 01:15:49;;;;;;;68.00;34.67;;;;;;;;;;5040626;28;20468;-80
2022/01/08 01:18:35;;;;;;;66.97;34.88;;;;;;;;;;5026018;28;20045;-79
2022/01/08 01:21:20;;;;;;;33.70;19.10;;;;;;;;;;5019650;28;20472;-79
2022/01/08 01:24:12;;;;;;;19.15;10.35;;;;;;;;;;5034565;28;20420;-81
2022/01/08 01:27:45;;;;;;;37.00;20.27;;;;;;;;;;5041013;28;20045;-81
2022/01/08 01:30:24;;;;;;;35.88;19.17;;;;;;;;;;5041912;28;20046;-80
2022/01/08 01:43:19;;;;;;;25.60;14.52;;;;;;;;;;5035027;28;20045;-79
2022/01/08 01:48:28;;;;;;;39.47;19.70;;;;;;;;;;5040657;28;20037;-81
2022/01/08 01:51:21;;;;;;;38.75;19.42;;;;;;;;;;5040499;28;20050;-81
2022/01/08 01:54:06;;;;;;;41.40;22.02;;;;;;;;;;5033849;28;20049;-81
2022/01/08 01:56:52;;;;;;;39.50;21.27;;;;;;;;;;5033590;28;20472;-83
2022/01/08 01:59:37;;;;;;;43.33;23.55;;;;;;;;;;5033843;28;20045;-82
2022/01/08 02:02:23;;;;;;;54.50;30.20;;;;;;;;;;5033491;28;20041;-81
2022/01/08 02:05:09;;;;;;;53.63;30.27;;;;;;;;;;5040134;28;20485;-80
2022/01/08 02:07:55;;;;;;;57.47;31.08;;;;;;;;;;5046943;28;20469;-81
2022/01/08 02:10:40;;;;;;;63.20;30.90;;;;;;;;;;5046644;28;20053;-79
2022/01/08 02:13:28;;;;;;;58.40;29.42;;;;;;;;;;5040630;28;20049;-81
2022/01/08 02:16:18;;;;;;;59.13;30.63;;;;;;;;;;5040243;28;20045;-80
2022/01/08 02:19:03;;;;;;;52.92;29.20;;;;;;;;;;5047085;28;20050;-80
2022/01/08 02:21:57;;;;;;;57.38;29.17;;;;;;;;;;5046558;28;20049;-80
2022/01/08 02:24:44;;;;;;;55.35;29.27;;;;;;;;;;5039864;28;20057;-81
2022/01/08 02:27:30;;;;;;;54.38;30.17;;;;;;;;;;5039949;28;20045;-79
2022/01/08 02:30:16;;;;;;;58.67;31.23;;;;;;;;;;5031751;28;20045;-80
2022/01/08 02:33:01;;;;;;;52.13;28.63;;;;;;;;;;5046403;28;20053;-81
2022/01/08 02:35:47;;;;;;;55.40;29.73;;;;;;;;;;5042338;28;20461;-83
2022/01/08 02:38:34;;;;;;;58.97;30.90;;;;;;;;;;5039586;28;20045;-83
2022/01/08 02:41:19;;;;;;;58.95;31.63;;;;;;;;;;5040288;28;20049;-80
2022/01/08 02:44:06;;;;;;;57.40;30.23;;;;;;;;;;5046807;28;20045;-82
2022/01/08 02:46:51;;;;;;;56.72;31.95;;;;;;;;;;5046162;28;20045;-81
2022/01/08 02:49:37;;;;;;;54.20;29.08;;;;;;;;;;5046509;28;20042;-81
2022/01/08 02:52:23;;;;;;;56.97;29.73;;;;;;;;;;5047387;28;20049;-80
2022/01/08 02:55:08;;;;;;;59.33;30.40;;;;;;;;;;5049931;28;20397;-83
2022/01/08 02:57:53;;;;;;;57.00;31.92;;;;;;;;;;5041706;28;20042;-80
2022/01/08 03:00:38;;;;;;;55.55;30.65;;;;;;;;;;5046754;28;20053;-79
2022/01/08 03:03:23;;;;;;;55.38;29.33;;;;;;;;;;5048194;28;20396;-79
2022/01/08 03:06:09;;;;;;;47.35;26.88;;;;;;;;;;5018385;28;20484;-80
2022/01/08 03:08:54;;;;;;;56.97;28.48;;;;;;;;;;5040550;28;20045;-80
2022/01/08 03:11:41;;;;;;;55.25;28.50;;;;;;;;;;5046822;28;20045;-81
2022/01/08 03:14:26;;;;;;;49.42;27.17;;;;;;;;;;5039263;28;20038;-79
2022/01/08 03:17:11;;;;;;;48.53;27.13;;;;;;;;;;5045905;28;20049;-80
2022/01/08 03:20:03;;;;;;;44.25;23.17;;;;;;;;;;5027858;28;20481;-82
2022/01/08 03:22:49;;;;;;;65.05;32.65;;;;;;;;;;5043382;28;20057;-79
2022/01/08 03:25:34;;;;;;;60.90;31.42;;;;;;;;;;5036899;28;20057;-81
2022/01/08 03:28:20;;;;;;;44.88;22.98;;;;;;;;;;5042465;28;20042;-80
2022/01/08 03:31:05;;;;;;;58.80;31.02;;;;;;;;;;5043366;28;20049;-79
2022/01/08 03:33:52;;;;;;;57.60;31.08;;;;;;;;;;5043053;28;20484;-82
2022/01/08 03:36:38;;;;;;;80.15;38.70;;;;;;;;;;5042734;28;20049;-82
2022/01/08 03:39:23;;;;;;;55.83;32.15;;;;;;;;;;5036359;28;20053;-79
2022/01/08 03:42:09;;;;;;;67.22;33.03;;;;;;;;;;5035793;28;20481;-81
2022/01/08 03:44:54;;;;;;;65.88;33.38;;;;;;;;;;5030830;28;20041;-82
2022/01/08 03:50:34;;;;;;;;;;;;;;;;;;5049061;28;20050;-79
2022/01/08 03:53:19;;;;;;;;;;;;;;;;;;5040369;28;19912;-82
2022/01/08 03:56:05;;;;;;;31.83;18.35;;;;;;;;;;5044568;28;20364;-82
2022/01/08 03:58:53;;;;;;;25.42;14.07;;;;;;;;;;5042756;28;20042;-83
2022/01/08 04:01:38;;;;;;;53.67;29.52;;;;;;;;;;5042339;28;20049;-80
2022/01/08 04:04:24;;;;;;;47.65;26.67;;;;;;;;;;5035997;28;20041;-80
2022/01/08 04:07:09;;;;;;;48.65;26.02;;;;;;;;;;5042188;28;20041;-81
2022/01/08 04:09:54;;;;;;;47.10;26.75;;;;;;;;;;5042063;28;20045;-82
2022/01/08 04:12:47;;;;;;;48.45;25.65;;;;;;;;;;5042608;28;20046;-81
2022/01/08 04:15:37;;;;;;;35.10;19.58;;;;;;;;;;5035473;28;20045;-82
2022/01/08 04:18:22;;;;;;;49.90;26.15;;;;;;;;;;5033506;28;20046;-79
2022/01/08 04:21:48;;;;;;;47.63;27.00;;;;;;;;;;5030890;28;20480;-81
2022/01/08 04:24:13;;;;;;;44.45;27.02;;;;;;;;;;5033360;28;20432;-81
2022/01/08 04:27:00;;;;;;;47.67;26.98;;;;;;;;;;5017458;28;20049;-81
2022/01/08 04:29:46;;;;;;;47.10;28.20;;;;;;;;;;5030243;28;20037;-79
2022/01/08 04:32:31;;;;;;;30.95;16.25;;;;;;;;;;5028180;28;20049;-79
2022/01/08 04:35:17;;;;;;;49.15;28.88;;;;;;;;;;5030390;28;20041;-79
2022/01/08 04:38:02;;;;;;;50.45;28.92;;;;;;;;;;5040440;28;20053;-80
2022/01/08 04:40:48;;;;;;;50.30;29.52;;;;;;;;;;5041542;28;20045;-81
2022/01/08 04:43:37;;;;;;;46.63;28.13;;;;;;;;;;5035025;28;20045;-80
2022/01/08 04:46:22;;;;;;;51.70;29.13;;;;;;;;;;5041553;28;20476;-80
2022/01/08 04:49:08;;;;;;;32.80;18.58;;;;;;;;;;5040768;28;20049;-81
2022/01/08 04:51:54;;;;;;;47.83;28.60;;;;;;;;;;5041157;28;20053;-78
2022/01/08 04:54:40;;;;;;;51.50;29.58;;;;;;;;;;5039282;28;20041;-82
2022/01/08 04:57:25;;;;;;;52.42;29.55;;;;;;;;;;5039381;28;20053;-80
2022/01/08 05:00:14;;;;;;;46.20;24.85;;;;;;;;;;5024054;28;20050;-78
2022/01/08 05:02:59;;;;;;;53.50;29.30;;;;;;;;;;5012962;28;20050;-82
2022/01/08 05:05:46;;;;;;;55.33;28.73;;;;;;;;;;5020488;28;20072;-80
2022/01/08 05:08:32;;;;;;;48.67;27.70;;;;;;;;;;5033477;28;20412;-80
2022/01/08 05:11:17;;;;;;;49.70;27.35;;;;;;;;;;5034480;28;20049;-79
2022/01/08 05:14:04;;;;;;;49.33;27.73;;;;;;;;;;5014959;28;20054;-82
2022/01/08 05:16:56;;;;;;;48.55;27.38;;;;;;;;;;5021196;28;20492;-80
2022/01/08 05:22:31;;;;;;;50.15;28.33;;;;;;;;;;5021404;28;20049;-79
2022/01/08 05:25:21;;;;;;;53.97;29.17;;;;;;;;;;5014252;28;20050;-80
2022/01/08 05:28:06;;;;;;;47.25;28.35;;;;;;;;;;5020673;28;20045;-81
2022/01/08 05:30:51;;;;;;;50.78;28.65;;;;;;;;;;5014307;28;20489;-80
2022/01/08 05:33:37;;;;;;;45.65;26.67;;;;;;;;;;5040280;28;20046;-82
2022/01/08 05:36:23;;;;;;;55.97;29.88;;;;;;;;;;5019127;28;20046;-79
2022/01/08 05:39:08;;;;;;;51.30;28.80;;;;;;;;;;5014334;28;20058;-83
2022/01/08 05:41:53;;;;;;;49.83;30.77;;;;;;;;;;5019733;28;20049;-79
2022/01/08 05:44:38;;;;;;;52.50;30.17;;;;;;;;;;5020992;28;20046;-79
2022/01/08 05:47:28;;;;;;;58.33;32.85;;;;;;;;;;5020052;28;20042;-79
2022/01/08 05:50:14;;;;;;;63.33;33.22;;;;;;;;;;5013822;28;20049;-80
2022/01/08 05:52:59;;;;;;;61.42;35.67;;;;;;;;;;5014068;28;20042;-79
2022/01/08 05:55:45;;;;;;;60.03;34.53;;;;;;;;;;5020267;28;20477;-81
2022/01/08 05:58:30;;;;;;;58.00;32.55;;;;;;;;;;5020880;28;20397;-79
2022/01/08 06:01:16;;;;;;;55.88;30.88;;;;;;;;;;5013566;28;20041;-81
2022/01/08 06:04:03;;;;;;;58.45;31.23;;;;;;;;;;5021131;28;20054;-78
2022/01/08 06:06:48;;;;;;;54.55;30.65;;;;;;;;;;5020369;28;20393;-81
2022/01/08 06:09:34;;;;;;;67.00;34.45;;;;;;;;;;5013448;28;20050;-81
2022/01/08 06:12:19;;;;;;;60.30;30.88;;;;;;;;;;5013506;28;20038;-80
2022/01/08 06:15:05;;;;;;;69.40;37.05;;;;;;;;;;5013448;28;20400;-81
2022/01/08 06:17:51;;;;;;;69.30;37.20;;;;;;;;;;5021000;28;20050;-78
2022/01/08 06:20:36;;;;;;;60.28;34.50;;;;;;;;;;5019818;28;20042;-80
2022/01/08 06:23:22;;;;;;;63.00;35.65;;;;;;;;;;5028597;28;20054;-81
2022/01/08 06:26:08;;;;;;;64.72;34.17;;;;;;;;;;5013995;28;20401;-78
2022/01/08 06:28:54;;;;;;;59.65;33.40;;;;;;;;;;5013462;28;20536;-80
2022/01/08 06:31:40;;;;;;;73.55;37.63;;;;;;;;;;5020816;28;20046;-80
2022/01/08 06:34:25;;;;;;;71.38;38.30;;;;;;;;;;5029704;28;20049;-80
2022/01/08 06:37:11;;;;;;;85.53;43.08;;;;;;;;;;5026756;28;20057;-81
2022/01/08 06:39:57;;;;;;;75.68;38.30;;;;;;;;;;5024808;28;20042;-80
2022/01/08 06:42:43;;;;;;;77.60;40.47;;;;;;;;;;5034116;28;20431;-81
2022/01/08 06:45:29;;;;;;;71.25;37.13;;;;;;;;;;5021798;28;20053;-83
2022/01/08 06:48:14;;;;;;;73.47;39.38;;;;;;;;;;5020143;28;20054;-82
2022/01/08 06:50:59;;;;;;;71.72;34.25;;;;;;;;;;5019386;28;20049;-81
2022/01/08 06:53:45;;;;;;;75.05;38.90;;;;;;;;;;5014766;28;20042;-80
2022/01/08 06:56:31;;;;;;;72.25;39.33;;;;;;;;;;5024056;28;20045;-78
2022/01/08 06:59:16;;;;;;;73.28;39.88;;;;;;;;;;5035281;28;20500;-81
2022/01/08 07:02:02;;;;;;;72.03;40.05;;;;;;;;;;5036949;28;20046;-81
2022/01/08 07:04:47;;;;;;;75.60;40.55;;;;;;;;;;5043440;28;20045;-80
2022/01/08 07:07:33;;;;;;;80.22;40.20;;;;;;;;;;5037005;28;20050;-79
2022/01/08 07:10:18;;;;;;;65.72;37.20;;;;;;;;;;5039539;28;20045;-81
2022/01/08 07:13:04;;;;;;;67.55;35.90;;;;;;;;;;5047438;28;20045;-79
2022/01/08 07:15:50;;;;;;;65.85;37.20;;;;;;;;;;5045454;28;20049;-80
2022/01/08 07:18:35;;;;;;;68.75;32.85;;;;;;;;;;5049401;28;20050;-80
2022/01/08 07:21:21;;;;;;;72.38;37.70;;;;;;;;;;5049934;28;20049;-82
2022/01/08 07:24:05;;;;;;;75.18;38.60;;;;;;;;;;5036930;28;20041;-82
2022/01/08 07:26:51;;;;;;;118.93;55.55;;;;;;;;;;5042641;28;20042;-81
2022/01/08 07:29:36;;;;;;;116.00;54.33;;;;;;;;;;5035933;28;20473;-80
2022/01/08 07:32:22;;;;;;;110.03;52.08;;;;;;;;;;5026916;28;20050;-81
2022/01/08 07:35:08;;;;;;;95.53;47.08;;;;;;;;;;5020752;28;20046;-81
2022/01/08 07:37:53;;;;;;;81.03;41.22;;;;;;;;;;5035208;28;20049;-79
2022/01/08 07:40:39;;;;;;;83.88;45.08;;;;;;;;;;5035879;28;20465;-81
2022/01/08 07:43:24;;;;;;;113.70;60.30;;;;;;;;;;5036207;28;20416;-79
2022/01/08 07:46:10;;;;;;;87.85;45.88;;;;;;;;;;5042191;28;20085;-80
2022/01/08 07:48:55;;;;;;;83.95;44.55;;;;;;;;;;5035531;28;20045;-80
2022/01/08 07:51:41;;;;;;;64.85;34.78;;;;;;;;;;5030151;28;20401;-81
2022/01/08 07:54:26;;;;;;;85.93;44.03;;;;;;;;;;5015915;28;20389;-81
2022/01/08 07:57:11;;;;;;;57.63;31.20;;;;;;;;;;5016217;28;20045;-80
2022/01/08 07:59:57;;;;;;;76.22;41.53;;;;;;;;;;5022146;28;20050;-80
2022/01/08 08:02:43;;;;;;;71.15;37.88;;;;;;;;;;5035662;28;20049;-80
2022/01/08 08:05:31;;;;;;;137.02;67.47;;;;;;;;;;5028041;28;20034;-80
2022/01/08 08:08:20;;;;;;;101.28;53.05;;;;;;;;;;5021941;28;20045;-84
2022/01/08 08:11:05;;;;;;;101.00;52.25;;;;;;;;;;5022094;28;20057;-81
2022/01/08 08:13:51;;;;;;;107.93;54.13;;;;;;;;;;5022270;28;20054;-80
2022/01/08 08:16:36;;;;;;;79.03;42.45;;;;;;;;;;5016091;28;20389;-80
2022/01/08 08:19:21;;;;;;;73.75;36.83;;;;;;;;;;5022539;28;20045;-80
2022/01/08 08:22:07;;;;;;;85.22;42.42;;;;;;;;;;5015413;28;20042;-78
2022/01/08 08:24:52;;;;;;;72.28;36.58;;;;;;;;;;5022958;28;20480;-78
2022/01/08 08:27:39;;;;;;;75.85;39.95;;;;;;;;;;5015565;28;20046;-81
2022/01/08 08:30:25;;;;;;;109.95;52.58;;;;;;;;;;5000540;28;20042;-79
2022/01/08 08:33:10;;;;;;;126.45;54.97;;;;;;;;;;5030173;28;20060;-80
2022/01/08 08:35:56;;;;;;;63.67;31.73;;;;;;;;;;5036745;28;20049;-78
2022/01/08 08:38:41;;;;;;;71.00;39.10;;;;;;;;;;5034749;28;20053;-79
2022/01/08 08:41:27;;;;;;;100.10;49.97;;;;;;;;;;5041368;28;20045;-81
2022/01/08 08:44:12;;;;;;;97.40;47.58;;;;;;;;;;5041569;28;20057;-78
2022/01/08 08:46:58;;;;;;;103.40;50.42;;;;;;;;;;5042103;28;20053;-80
2022/01/08 08:49:43;;;;;;;85.60;41.25;;;;;;;;;;5034324;28;20502;-78
2022/01/08 08:52:29;;;;;;;94.30;47.35;;;;;;;;;;5041720;28;20392;-81
2022/01/08 08:55:16;;;;;;;90.90;47.80;;;;;;;;;;5041026;28;20079;-79
2022/01/08 08:58:01;;;;;;;66.40;34.38;;;;;;;;;;5039937;28;20480;-81
2022/01/08 09:00:47;;;;;;;78.57;40.83;;;;;;;;;;5023425;28;20046;-80
2022/01/08 09:03:33;;;;;;;55.45;28.13;;;;;;;;;;5031379;28;20041;-79
2022/01/08 09:06:19;;;;;;;69.32;38.22;;;;;;;;;;5040873;28;20041;-79
2022/01/08 09:09:05;;;;;;;28.92;16.75;;;;;;;;;;5039384;28;20400;-80
2022/01/08 09:11:51;;;;;;;84.22;45.53;;;;;;;;;;5030911;28;20046;-78
2022/01/08 09:14:37;;;;;;;86.25;43.17;;;;;;;;;;5030277;28;20037;-81
2022/01/08 09:17:24;;;;;;;86.25;43.30;;;;;;;;;;5031032;28;20054;-78
2022/01/08 09:20:09;;;;;;;68.43;39.25;;;;;;;;;;5040531;28;20045;-79
2022/01/08 09:22:56;;;;;;;73.68;39.22;;;;;;;;;;5040625;28;20049;-79
2022/01/08 09:25:42;;;;;;;81.75;43.20;;;;;;;;;;5041071;28;20493;-80
2022/01/08 09:28:28;;;;;;;77.70;40.90;;;;;;;;;;5027729;28;20041;-78
2022/01/08 09:31:14;;;;;;;71.53;39.10;;;;;;;;;;5034019;28;20033;-78
2022/01/08 09:33:59;;;;;;;88.88;46.08;;;;;;;;;;5039062;28;20041;-78
2022/01/08 09:36:44;;;;;;;88.72;45.13;;;;;;;;;;5034839;28;20045;-81
2022/01/08 09:39:29;;;;;;;87.68;44.88;;;;;;;;;;5033781;28;20079;-79
2022/01/08 09:42:15;;;;;;;129.35;59.65;;;;;;;;;;5033986;28;20470;-81
2022/01/08 09:45:04;;;;;;;92.78;44.60;;;;;;;;;;5026615;28;20045;-80
2022/01/08 09:47:49;;;;;;;90.95;46.65;;;;;;;;;;5010611;28;20030;-81
2022/01/08 09:50:34;;;;;;;89.30;44.15;;;;;;;;;;5032188;28;20049;-80
2022/01/08 09:53:21;;;;;;;68.93;37.30;;;;;;;;;;5033345;28;20045;-82
2022/01/08 09:56:07;;;;;;;75.53;40.80;;;;;;;;;;5033707;28;20473;-81
2022/01/08 09:58:53;;;;;;;71.97;37.50;;;;;;;;;;5040156;28;20057;-81
2022/01/08 10:01:39;;;;;;;60.33;29.08;;;;;;;;;;5039041;28;20041;-81
2022/01/08 10:04:33;;;;;;;61.95;33.55;;;;;;;;;;5039083;28;20488;-81
2022/01/08 10:07:22;;;;;;;59.88;31.77;;;;;;;;;;5039478;28;20045;-81
2022/01/08 10:10:13;;;;;;;64.63;34.45;;;;;;;;;;5025167;28;20049;-78
2022/01/08 10:13:01;;;;;;;63.17;34.78;;;;;;;;;;5033092;28;20046;-81
2022/01/08 10:18:49;;;;;;;84.95;44.65;;;;;;;;;;5039023;28;20041;-80
2022/01/08 10:21:37;;;;;;;60.70;33.10;;;;;;;;;;5038985;28;20054;-80
2022/01/08 10:24:28;;;;;;;80.45;41.97;;;;;;;;;;5039888;28;20054;-81
2022/01/08 10:27:14;;;;;;;53.88;31.20;;;;;;;;;;5040619;28;20484;-81
2022/01/08 10:30:00;;;;;;;60.97;33.92;;;;;;;;;;5043878;28;20045;-79
2022/01/08 10:32:58;;;;;;;72.93;38.90;;;;;;;;;;5036909;28;20045;-80
2022/01/08 10:35:52;;;;;;;79.80;41.53;;;;;;;;;;5038314;28;20524;-80
2022/01/08 10:38:37;;;;;;;59.15;29.33;;;;;;;;;;5041362;28;20045;-82
2022/01/08 10:41:25;;;;;;;60.92;31.23;;;;;;;;;;5039384;28;20041;-80
2022/01/08 10:44:14;;;;;;;85.03;39.25;;;;;;;;;;5037094;28;20049;-81
2022/01/08 10:47:02;;;;;;;53.58;27.48;;;;;;;;;;5037396;28;20041;-80
2022/01/08 10:49:56;;;;;;;98.95;56.15;;;;;;;;;;5032977;28;20480;-82
2022/01/08 10:52:46;;;;;;;56.97;24.10;;;;;;;;;;5028595;28;20397;-83
2022/01/08 10:55:33;;;;;;;55.88;29.70;;;;;;;;;;5030063;28;20397;-79
2022/01/08 10:58:42;;;;;;;57.65;27.02;;;;;;;;;;5043469;28;20045;-80
2022/01/08 11:01:44;;;;;;;68.80;34.25;;;;;;;;;;5031992;28;20049;-79
2022/01/08 11:04:52;;;;;;;61.70;29.80;;;;;;;;;;5024745;28;20041;-80
2022/01/08 11:07:42;;;;;;;54.80;29.23;;;;;;;;;;5018356;28;20050;-81
2022/01/08 11:10:27;;;;;;;57.38;32.90;;;;;;;;;;5016906;28;20385;-81
2022/01/08 11:13:15;;;;;;;62.55;33.67;;;;;;;;;;5022617;28;20049;-79
2022/01/08 11:16:00;;;;;;;47.25;26.48;;;;;;;;;;5016537;28;20038;-80
2022/01/08 11:18:45;;;;;;;85.40;41.35;;;;;;;;;;5022520;28;20058;-80
2022/01/08 11:21:33;;;;;;;79.93;38.92;;;;;;;;;;5015947;28;20045;-79
2022/01/08 11:24:21;;;;;;;83.95;41.40;;;;;;;;;;5021947;28;20045;-80
2022/01/08 11:27:08;;;;;;;67.55;37.30;;;;;;;;;;5027126;28;20045;-84
2022/01/08 11:30:04;;;;;;;71.60;38.80;;;;;;;;;;5025838;28;20045;-80
2022/01/08 11:32:55;;;;;;;71.40;38.72;;;;;;;;;;5036228;28;20397;-81
2022/01/08 11:35:42;;;;;;;91.95;44.45;;;;;;;;;;5034547;28;20477;-80
2022/01/08 11:38:29;;;;;;;78.40;40.50;;;;;;;;;;5035359;28;20491;-81
2022/01/08 11:41:16;;;;;;;64.75;36.08;;;;;;;;;;5043235;28;20049;-82
2022/01/08 11:44:04;;;;;;;63.17;35.30;;;;;;;;;;5021036;28;20057;-82
2022/01/08 11:46:50;;;;;;;64.97;35.78;;;;;;;;;;5036251;28;20046;-81
2022/01/08 11:49:36;;;;;;;85.43;39.40;;;;;;;;;;5036011;28;20046;-83
2022/01/08 11:52:23;;;;;;;67.25;32.75;;;;;;;;;;5029212;28;20345;-82
2022/01/08 11:55:09;;;;;;;77.40;37.00;;;;;;;;;;5021211;28;20065;-82
2022/01/08 11:58:18;;;;;;;77.55;41.20;;;;;;;;;;5015642;28;20046;-81
2022/01/08 12:01:12;;;;;;;75.82;38.72;;;;;;;;;;5020685;28;20061;-81
2022/01/08 12:03:57;;;;;;;84.85;45.30;;;;;;;;;;5035837;28;20041;-83
2022/01/08 12:06:43;;;;;;;77.45;36.58;;;;;;;;;;5035257;28;20045;-79
2022/01/08 12:09:29;;;;;;;59.35;31.02;;;;;;;;;;5038495;28;20050;-83
2022/01/08 12:12:14;;;;;;;81.93;40.47;;;;;;;;;;5033508;28;20037;-81
2022/01/08 12:15:00;;;;;;;78.38;40.15;;;;;;;;;;5041908;28;20054;-82
2022/01/08 12:17:58;;;;;;;109.55;47.25;;;;;;;;;;5041485;28;20045;-81
2022/01/08 12:20:50;;;;;;;89.80;40.03;;;;;;;;;;5035668;28;20488;-83
2022/01/08 12:23:40;;;;;;;81.13;36.08;;;;;;;;;;5044406;28;20071;-78
2022/01/08 12:26:25;;;;;;;91.50;40.67;;;;;;;;;;5045444;28;20049;-78
2022/01/08 12:29:30;;;;;;;70.72;36.13;;;;;;;;;;5039702;28;20037;-77
2022/01/08 12:32:37;;;;;;;69.68;37.45;;;;;;;;;;5039044;28;20053;-81
2022/01/08 12:35:28;;;;;;;48.78;22.08;;;;;;;;;;5036011;28;20049;-81
2022/01/08 12:38:28;;;;;;;57.67;29.88;;;;;;;;;;5026515;28;20053;-80
2022/01/08 12:41:19;;;;;;;86.30;41.60;;;;;;;;;;5020189;28;20053;-82
2022/01/08 12:44:27;;;;;;;76.13;38.75;;;;;;;;;;5034913;28;20049;-82
2022/01/08 12:47:37;;;;;;;83.03;41.80;;;;;;;;;;5023386;28;20046;-81
2022/01/08 12:50:31;;;;;;;81.97;38.10;;;;;;;;;;5014325;28;20050;-82
2022/01/08 12:53:28;;;;;;;72.22;33.97;;;;;;;;;;5025265;28;20046;-81
2022/01/08 12:56:15;;;;;;;66.18;37.35;;;;;;;;;;5016769;28;20050;-81
2022/01/08 12:59:02;;;;;;;68.45;36.67;;;;;;;;;;5020287;28;20045;-82
2022/01/08 13:01:51;;;;;;;60.47;33.30;;;;;;;;;;5017506;28;20038;-82
2022/01/08 13:04:39;;;;;;;48.42;24.73;;;;;;;;;;5025785;28;20493;-82
2022/01/08 13:07:25;;;;;;;71.40;38.15;;;;;;;;;;5030752;28;20404;-81
2022/01/08 13:10:10;;;;;;;79.45;40.45;;;;;;;;;;5033759;28;20033;-81
2022/01/08 13:13:04;;;;;;;100.95;47.47;;;;;;;;;;5023287;28;20049;-83
2022/01/08 13:15:51;;;;;;;99.68;48.35;;;;;;;;;;5034021;28;20460;-84
2022/01/08 13:18:36;;;;;;;74.00;37.83;;;;;;;;;;5027075;28;20400;-84
2022/01/08 13:21:39;;;;;;;72.57;39.60;;;;;;;;;;5032939;28;20049;-82
2022/01/08 13:24:33;;;;;;;70.07;39.63;;;;;;;;;;5026397;28;20053;-85
2022/01/08 13:27:23;;;;;;;73.88;38.72;;;;;;;;;;5013775;28;20488;-84
2022/01/08 13:30:10;;;;;;;84.95;40.60;;;;;;;;;;5014544;28;20045;-85
2022/01/08 13:33:03;;;;;;;101.88;49.40;;;;;;;;;;5008901;28;20050;-84
2022/01/08 13:36:04;;;;;;;111.97;52.80;;;;;;;;;;5022398;28;20042;-83
2022/01/08 13:38:50;;;;;;;104.50;54.03;;;;;;;;;;5034662;28;20057;-84
2022/01/08 13:41:36;;;;;;;84.72;41.80;;;;;;;;;;5034160;28;20049;-81
2022/01/08 13:44:21;;;;;;;69.05;35.85;;;;;;;;;;5025756;28;20053;-81
2022/01/08 13:47:23;;;;;;;66.10;36.92;;;;;;;;;;5031764;28;20476;-82
2022/01/08 13:50:22;;;;;;;85.75;43.13;;;;;;;;;;5020908;28;20046;-83
2022/01/08 13:53:10;;;;;;;99.13;45.70;;;;;;;;;;5039072;28;20053;-82
2022/01/08 13:55:59;;;;;;;92.97;44.47;;;;;;;;;;5037445;28;20050;-83
2022/01/08 13:58:44;;;;;;;94.63;42.90;;;;;;;;;;5024077;28;20404;-82
2022/01/08 14:01:47;;;;;;;77.90;39.50;;;;;;;;;;5013604;28;20045;-82
2022/01/08 14:04:33;;;;;;;98.68;44.72;;;;;;;;;;5020491;28;20046;-81
2022/01/08 14:07:18;;;;;;;97.05;48.05;;;;;;;;;;5013912;28;20477;-84
2022/01/08 14:10:05;;;;;;;86.75;43.38;;;;;;;;;;5013440;28;20046;-82
2022/01/08 14:13:05;;;;;;;92.97;45.00;;;;;;;;;;5025571;28;20037;-82
2022/01/08 14:16:08;;;;;;;92.40;47.35;;;;;;;;;;5036744;28;20045;-82
2022/01/08 14:19:08;;;;;;;81.60;39.17;;;;;;;;;;5025513;28;20404;-82
2022/01/08 14:21:57;;;;;;;137.27;62.03;;;;;;;;;;5031533;28;20049;-83
2022/01/08 14:24:42;;;;;;;137.88;66.40;;;;;;;;;;5035136;28;20484;-82
2022/01/08 14:27:38;;;;;;;95.80;44.72;;;;;;;;;;5034588;28;20049;-82
2022/01/08 14:30:30;;;;;;;96.53;46.60;;;;;;;;;;5026568;28;20045;-83
2022/01/08 14:33:15;;;;;;;88.78;43.40;;;;;;;;;;5035266;28;20041;-82
2022/01/08 14:36:01;;;;;;;133.55;61.95;;;;;;;;;;5032321;28;20050;-81
2022/01/08 14:38:50;;;;;;;133.85;59.10;;;;;;;;;;5033282;28;20049;-82
2022/01/08 14:41:37;;;;;;;96.45;47.97;;;;;;;;;;5025715;28;20037;-82
2022/01/08 14:44:24;;;;;;;98.75;46.55;;;;;;;;;;5039065;28;20037;-81
2022/01/08 14:47:36;;;;;;;107.80;48.88;;;;;;;;;;5039023;28;20042;-82
2022/01/08 14:50:24;;;;;;;119.82;47.92;;;;;;;;;;5029696;28;20492;-82
2022/01/08 14:53:10;;;;;;;84.45;40.60;;;;;;;;;;5015737;28;20037;-81
2022/01/08 14:55:56;;;;;;;90.00;44.40;;;;;;;;;;5021465;28;20038;-82
2022/01/08 14:58:41;;;;;;;81.88;41.70;;;;;;;;;;5029661;28;20053;-81
2022/01/08 15:01:27;;;;;;;88.95;44.78;;;;;;;;;;5040410;28;20041;-82
2022/01/08 15:04:14;;;;;;;98.43;44.80;;;;;;;;;;5028950;28;20432;-81
2022/01/08 15:07:02;;;;;;;114.97;48.17;;;;;;;;;;5016753;28;20045;-80
2022/01/08 15:09:46;;;;;;;136.35;53.00;;;;;;;;;;5018492;28;20042;-81
2022/01/08 15:12:33;;;;;;;139.43;57.60;;;;;;;;;;5020517;28;20062;-81
2022/01/08 15:15:18;;;;;;;104.22;47.88;;;;;;;;;;5038857;28;20050;-81
2022/01/08 15:18:03;;;;;;;109.45;48.78;;;;;;;;;;5043452;28;20045;-78
2022/01/08 15:20:52;;;;;;;96.43;45.72;;;;;;;;;;5040529;28;20042;-80
2022/01/08 15:23:39;;;;;;;111.05;51.20;;;;;;;;;;5031981;28;20493;-80
2022/01/08 15:26:24;;;;;;;111.57;49.30;;;;;;;;;;5020983;28;20045;-81
2022/01/08 15:29:09;;;;;;;137.90;56.63;;;;;;;;;;5027675;28;20037;-81
2022/01/08 15:31:56;;;;;;;120.95;51.20;;;;;;;;;;5024189;28;20053;-80
2022/01/08 15:34:42;;;;;;;124.90;50.78;;;;;;;;;;5030798;28;20053;-82
2022/01/08 15:37:27;;;;;;;125.15;51.25;;;;;;;;;;5033865;28;20042;-83
2022/01/08 15:40:30;;;;;;;124.35;55.00;;;;;;;;;;5035068;28;20394;-80
2022/01/08 15:43:33;;;;;;;116.55;57.20;;;;;;;;;;5028764;28;20045;-81
2022/01/08 15:59:36;;;;;;;103.93;51.90;;;;;;;;;;4953969;28;20039;-83
2022/01/08 16:03:14;;;;;;;110.25;49.78;;;;;;;;;;4956596;29;20039;-80
2022/01/08 16:06:04;;;;;;;117.25;54.30;;;;;;;;;;4961079;28;20524;-80
2022/01/08 16:08:49;;;;;;;104.00;48.42;;;;;;;;;;4965677;28;20486;-81
2022/01/08 16:11:35;;;;;;;62.22;32.78;;;;;;;;;;5032732;28;20033;-81
2022/01/08 16:14:27;;;;;;;105.50;53.53;;;;;;;;;;5032952;28;20041;-81
2022/01/08 16:17:49;;;;;;;130.65;65.32;;;;;;;;;;5038272;28;20053;-82
2022/01/08 16:24:49;;;;;;;86.57;43.22;;;;;;;;;;5021840;28;20041;-81
2022/01/08 16:27:38;;;;;;;68.95;36.95;;;;;;;;;;5022487;28;20050;-80
2022/01/08 16:30:26;;;;;;;83.38;42.70;;;;;;;;;;5033652;28;20046;-82
2022/01/08 16:33:13;;;;;;;92.25;44.60;;;;;;;;;;5007226;28;20049;-81
2022/01/08 16:35:58;;;;;;;49.10;27.90;;;;;;;;;;5001836;28;20057;-81
2022/01/08 16:38:44;;;;;;;93.25;47.03;;;;;;;;;;5007056;28;20405;-81
2022/01/08 16:41:30;;;;;;;74.90;36.85;;;;;;;;;;5021741;28;20042;-81
2022/01/08 16:44:16;;;;;;;100.38;50.72;;;;;;;;;;5021841;28;20393;-82
2022/01/08 16:47:03;;;;;;;86.90;43.97;;;;;;;;;;5021701;28;20046;-81
2022/01/08 16:49:49;;;;;;;75.80;39.63;;;;;;;;;;5014609;28;20473;-81
2022/01/08 16:52:34;;;;;;;103.35;51.10;;;;;;;;;;5016780;28;20053;-81
2022/01/08 16:55:20;;;;;;;91.43;46.92;;;;;;;;;;5025455;28;20046;-81